sensor_id;sensor_type;location;lat;lon;timestamp;P1;durP1;ratioP1;P2;durP2;ratioP2
7813;SDS011;3952;48.364;16.022;2022-10-03T00:00:16;0.80;;;0.80;;
7813;SDS011;3952;48.364;16.022;2022-10-03T00:05:49;2.00;;;1.07;;
7813;SDS011;3952;48.364;16.022;2022-10-03T00:08:26;1.43;;;0.80;;
7813;SDS011;3952;48.364;16.022;2022-10-03T00:11:09;0.73;;;0.73;;
7813;SDS011;3952;48.364;16.022;2022-10-03T00:13:49;1.00;;;1.00;;
7813;SDS011;3952;48.364;16.022;2022-10-03T00:16:24;1.77;;;1.07;;
7813;SDS011;3952;48.364;16.022;2022-10-03T00:19:01;0.93;;;0.93;;
7813;SDS011;3952;48.364;16.022;2022-10-03T00:21:40;0.77;;;0.77;;
7813;SDS011;3952;48.364;16.022;2022-10-03T00:24:27;1.17;;;0.70;;
7813;SDS011;3952;48.364;16.022;2022-10-03T00:27:05;6.57;;;1.20;;
7813;SDS011;3952;48.364;16.022;2022-10-03T00:29:44;1.00;;;1.00;;
7813;SDS011;3952;48.364;16.022;2022-10-03T00:32:27;0.60;;;0.60;;
7813;SDS011;3952;48.364;16.022;2022-10-03T00:35:14;1.33;;;1.07;;
7813;SDS011;3952;48.364;16.022;2022-10-03T00:38:00;0.90;;;0.90;;
7813;SDS011;3952;48.364;16.022;2022-10-03T00:40:57;1.20;;;1.10;;
7813;SDS011;3952;48.364;16.022;2022-10-03T00:47:01;1.53;;;1.00;;
7813;SDS011;3952;48.364;16.022;2022-10-03T00:52:56;1.13;;;1.03;;
7813;SDS011;3952;48.364;16.022;2022-10-03T00:55:43;1.47;;;1.23;;
7813;SDS011;3952;48.364;16.022;2022-10-03T00:58:26;1.17;;;1.10;;
7813;SDS011;3952;48.364;16.022;2022-10-03T01:01:18;3.73;;;1.30;;
7813;SDS011;3952;48.364;16.022;2022-10-03T01:03:51;1.53;;;1.40;;
7813;SDS011;3952;48.364;16.022;2022-10-03T01:06:31;1.80;;;1.20;;
7813;SDS011;3952;48.364;16.022;2022-10-03T01:09:16;1.77;;;1.30;;
7813;SDS011;3952;48.364;16.022;2022-10-03T01:11:53;2.33;;;1.30;;
7813;SDS011;3952;48.364;16.022;2022-10-03T01:14:40;1.87;;;1.00;;
7813;SDS011;3952;48.364;16.022;2022-10-03T01:17:25;1.13;;;1.13;;
7813;SDS011;3952;48.364;16.022;2022-10-03T01:20:12;7.47;;;1.80;;
7813;SDS011;3952;48.364;16.022;2022-10-03T01:25:55;2.23;;;2.00;;
7813;SDS011;3952;48.364;16.022;2022-10-03T01:28:41;1.50;;;1.40;;
7813;SDS011;3952;48.364;16.022;2022-10-03T01:31:33;1.77;;;1.67;;
7813;SDS011;3952;48.364;16.022;2022-10-03T01:34:09;1.50;;;1.50;;
7813;SDS011;3952;48.364;16.022;2022-10-03T01:36:44;2.17;;;1.70;;
7813;SDS011;3952;48.364;16.022;2022-10-03T01:39:21;1.63;;;1.53;;
7813;SDS011;3952;48.364;16.022;2022-10-03T01:41:56;2.30;;;1.87;;
7813;SDS011;3952;48.364;16.022;2022-10-03T01:44:35;1.57;;;1.40;;
7813;SDS011;3952;48.364;16.022;2022-10-03T01:47:17;1.93;;;1.83;;
7813;SDS011;3952;48.364;16.022;2022-10-03T01:49:51;1.90;;;1.80;;
7813;SDS011;3952;48.364;16.022;2022-10-03T01:52:29;1.80;;;1.70;;
7813;SDS011;3952;48.364;16.022;2022-10-03T01:55:04;2.20;;;1.70;;
7813;SDS011;3952;48.364;16.022;2022-10-03T01:57:39;3.70;;;1.93;;
7813;SDS011;3952;48.364;16.022;2022-10-03T02:00:12;2.00;;;1.80;;
7813;SDS011;3952;48.364;16.022;2022-10-03T02:02:44;2.20;;;2.10;;
7813;SDS011;3952;48.364;16.022;2022-10-03T02:05:16;1.70;;;1.60;;
7813;SDS011;3952;48.364;16.022;2022-10-03T02:07:50;1.90;;;1.80;;
7813;SDS011;3952;48.364;16.022;2022-10-03T02:10:23;2.83;;;1.63;;
7813;SDS011;3952;48.364;16.022;2022-10-03T02:13:02;2.17;;;2.07;;
7813;SDS011;3952;48.364;16.022;2022-10-03T02:15:46;2.47;;;1.83;;
7813;SDS011;3952;48.364;16.022;2022-10-03T02:18:25;1.80;;;1.70;;
7813;SDS011;3952;48.364;16.022;2022-10-03T02:21:05;1.60;;;1.50;;
7813;SDS011;3952;48.364;16.022;2022-10-03T02:23:39;1.80;;;1.70;;
7813;SDS011;3952;48.364;16.022;2022-10-03T02:29:24;2.87;;;1.73;;
7813;SDS011;3952;48.364;16.022;2022-10-03T02:32:17;1.80;;;1.70;;
7813;SDS011;3952;48.364;16.022;2022-10-03T02:38:38;1.83;;;1.60;;
7813;SDS011;3952;48.364;16.022;2022-10-03T02:41:46;2.90;;;1.90;;
7813;SDS011;3952;48.364;16.022;2022-10-03T02:44:40;2.90;;;1.70;;
7813;SDS011;3952;48.364;16.022;2022-10-03T02:47:55;1.67;;;1.57;;
7813;SDS011;3952;48.364;16.022;2022-10-03T03:00:16;1.70;;;1.60;;
7813;SDS011;3952;48.364;16.022;2022-10-03T03:09:17;2.03;;;1.93;;
7813;SDS011;3952;48.364;16.022;2022-10-03T03:18:22;3.70;;;2.20;;
7813;SDS011;3952;48.364;16.022;2022-10-03T03:21:01;2.07;;;1.47;;
7813;SDS011;3952;48.364;16.022;2022-10-03T03:26:54;2.87;;;1.90;;
7813;SDS011;3952;48.364;16.022;2022-10-03T03:29:36;2.43;;;1.73;;
7813;SDS011;3952;48.364;16.022;2022-10-03T03:32:13;3.60;;;2.00;;
7813;SDS011;3952;48.364;16.022;2022-10-03T03:34:49;3.07;;;2.00;;
7813;SDS011;3952;48.364;16.022;2022-10-03T03:37:24;2.90;;;1.90;;
7813;SDS011;3952;48.364;16.022;2022-10-03T03:40:09;1.90;;;1.70;;
7813;SDS011;3952;48.364;16.022;2022-10-03T03:42:53;1.50;;;1.40;;
7813;SDS011;3952;48.364;16.022;2022-10-03T03:45:36;3.07;;;1.97;;
7813;SDS011;3952;48.364;16.022;2022-10-03T03:48:22;1.97;;;1.43;;
7813;SDS011;3952;48.364;16.022;2022-10-03T03:51:09;2.73;;;1.93;;
7813;SDS011;3952;48.364;16.022;2022-10-03T03:53:55;2.10;;;1.93;;
7813;SDS011;3952;48.364;16.022;2022-10-03T03:56:44;2.67;;;2.17;;
7813;SDS011;3952;48.364;16.022;2022-10-03T03:59:36;1.93;;;1.70;;
7813;SDS011;3952;48.364;16.022;2022-10-03T04:02:19;2.33;;;2.23;;
7813;SDS011;3952;48.364;16.022;2022-10-03T04:05:00;2.27;;;1.90;;
7813;SDS011;3952;48.364;16.022;2022-10-03T04:07:44;3.40;;;1.80;;
7813;SDS011;3952;48.364;16.022;2022-10-03T04:10:32;2.20;;;1.60;;
7813;SDS011;3952;48.364;16.022;2022-10-03T04:13:30;2.83;;;2.30;;
7813;SDS011;3952;48.364;16.022;2022-10-03T04:16:16;2.47;;;1.60;;
7813;SDS011;3952;48.364;16.022;2022-10-03T04:19:13;2.53;;;2.00;;
7813;SDS011;3952;48.364;16.022;2022-10-03T04:25:06;1.80;;;1.70;;
7813;SDS011;3952;48.364;16.022;2022-10-03T04:27:58;2.20;;;1.80;;
7813;SDS011;3952;48.364;16.022;2022-10-03T04:30:38;2.90;;;2.00;;
7813;SDS011;3952;48.364;16.022;2022-10-03T04:33:23;6.17;;;2.47;;
7813;SDS011;3952;48.364;16.022;2022-10-03T04:39:06;4.57;;;1.80;;
7813;SDS011;3952;48.364;16.022;2022-10-03T04:41:43;5.90;;;2.07;;
7813;SDS011;3952;48.364;16.022;2022-10-03T04:44:17;3.53;;;2.10;;
7813;SDS011;3952;48.364;16.022;2022-10-03T04:46:57;3.20;;;2.10;;
7813;SDS011;3952;48.364;16.022;2022-10-03T04:49:29;4.60;;;1.80;;
7813;SDS011;3952;48.364;16.022;2022-10-03T04:52:01;2.10;;;1.90;;
7813;SDS011;3952;48.364;16.022;2022-10-03T04:54:39;4.67;;;1.90;;
7813;SDS011;3952;48.364;16.022;2022-10-03T04:57:18;3.97;;;2.07;;
7813;SDS011;3952;48.364;16.022;2022-10-03T04:59:51;3.77;;;1.83;;
7813;SDS011;3952;48.364;16.022;2022-10-03T05:02:29;1.90;;;1.80;;
7813;SDS011;3952;48.364;16.022;2022-10-03T05:05:17;3.27;;;1.80;;
7813;SDS011;3952;48.364;16.022;2022-10-03T05:08:11;2.07;;;1.87;;
7813;SDS011;3952;48.364;16.022;2022-10-03T05:11:17;2.87;;;1.80;;
7813;SDS011;3952;48.364;16.022;2022-10-03T05:13:52;2.47;;;1.80;;
7813;SDS011;3952;48.364;16.022;2022-10-03T05:16:30;2.47;;;1.73;;
7813;SDS011;3952;48.364;16.022;2022-10-03T05:19:14;4.57;;;1.90;;
7813;SDS011;3952;48.364;16.022;2022-10-03T05:22:09;3.97;;;1.80;;
7813;SDS011;3952;48.364;16.022;2022-10-03T05:24:49;3.03;;;1.93;;
7813;SDS011;3952;48.364;16.022;2022-10-03T05:27:24;1.70;;;1.53;;
7813;SDS011;3952;48.364;16.022;2022-10-03T05:30:02;2.40;;;1.60;;
7813;SDS011;3952;48.364;16.022;2022-10-03T05:32:34;2.00;;;1.40;;
7813;SDS011;3952;48.364;16.022;2022-10-03T05:41:17;4.27;;;1.40;;
7813;SDS011;3952;48.364;16.022;2022-10-03T05:43:50;2.17;;;1.90;;
7813;SDS011;3952;48.364;16.022;2022-10-03T05:46:35;9.23;;;1.93;;
7813;SDS011;3952;48.364;16.022;2022-10-03T05:49:16;4.13;;;1.70;;
7813;SDS011;3952;48.364;16.022;2022-10-03T05:52:00;4.63;;;1.80;;
7813;SDS011;3952;48.364;16.022;2022-10-03T05:54:49;3.60;;;1.80;;
7813;SDS011;3952;48.364;16.022;2022-10-03T05:57:46;4.23;;;1.90;;
7813;SDS011;3952;48.364;16.022;2022-10-03T06:00:40;3.33;;;1.40;;
7813;SDS011;3952;48.364;16.022;2022-10-03T06:03:34;2.20;;;1.50;;
7813;SDS011;3952;48.364;16.022;2022-10-03T06:06:27;2.50;;;1.70;;
7813;SDS011;3952;48.364;16.022;2022-10-03T06:09:17;2.47;;;1.43;;
7813;SDS011;3952;48.364;16.022;2022-10-03T06:12:08;2.40;;;1.53;;
7813;SDS011;3952;48.364;16.022;2022-10-03T06:14:44;2.53;;;1.60;;
7813;SDS011;3952;48.364;16.022;2022-10-03T06:26:54;2.97;;;1.40;;
7813;SDS011;3952;48.364;16.022;2022-10-03T06:30:02;3.40;;;1.60;;
7813;SDS011;3952;48.364;16.022;2022-10-03T06:38:46;1.97;;;1.53;;
7813;SDS011;3952;48.364;16.022;2022-10-03T06:48:19;5.30;;;1.30;;
7813;SDS011;3952;48.364;16.022;2022-10-03T06:51:04;2.30;;;1.20;;
7813;SDS011;3952;48.364;16.022;2022-10-03T06:54:00;2.60;;;1.23;;
7813;SDS011;3952;48.364;16.022;2022-10-03T06:59:42;6.10;;;1.77;;
7813;SDS011;3952;48.364;16.022;2022-10-03T07:15:15;1.67;;;1.03;;
7813;SDS011;3952;48.364;16.022;2022-10-03T07:18:23;1.50;;;1.10;;
7813;SDS011;3952;48.364;16.022;2022-10-03T07:21:27;2.33;;;1.20;;
7813;SDS011;3952;48.364;16.022;2022-10-03T07:27:24;2.57;;;0.93;;
7813;SDS011;3952;48.364;16.022;2022-10-03T07:30:08;2.47;;;1.07;;
7813;SDS011;3952;48.364;16.022;2022-10-03T07:36:16;4.47;;;1.33;;
7813;SDS011;3952;48.364;16.022;2022-10-03T07:39:34;1.93;;;1.00;;
7813;SDS011;3952;48.364;16.022;2022-10-03T07:49:01;2.50;;;1.20;;
7813;SDS011;3952;48.364;16.022;2022-10-03T07:51:44;2.93;;;1.20;;
7813;SDS011;3952;48.364;16.022;2022-10-03T07:54:37;2.20;;;1.10;;
7813;SDS011;3952;48.364;16.022;2022-10-03T07:57:49;4.03;;;1.57;;
7813;SDS011;3952;48.364;16.022;2022-10-03T08:00:36;2.17;;;1.40;;
7813;SDS011;3952;48.364;16.022;2022-10-03T08:06:24;4.23;;;1.13;;
7813;SDS011;3952;48.364;16.022;2022-10-03T08:15:09;2.47;;;0.90;;
7813;SDS011;3952;48.364;16.022;2022-10-03T08:18:00;2.50;;;1.03;;
7813;SDS011;3952;48.364;16.022;2022-10-03T08:20:45;2.43;;;1.00;;
7813;SDS011;3952;48.364;16.022;2022-10-03T08:26:41;1.80;;;1.00;;
7813;SDS011;3952;48.364;16.022;2022-10-03T08:29:22;1.57;;;1.10;;
7813;SDS011;3952;48.364;16.022;2022-10-03T08:35:27;2.67;;;0.83;;
7813;SDS011;3952;48.364;16.022;2022-10-03T08:44:40;1.87;;;0.70;;
7813;SDS011;3952;48.364;16.022;2022-10-03T08:50:31;3.47;;;1.30;;
7813;SDS011;3952;48.364;16.022;2022-10-03T08:56:19;1.20;;;0.90;;
7813;SDS011;3952;48.364;16.022;2022-10-03T09:08:14;3.53;;;0.70;;
7813;SDS011;3952;48.364;16.022;2022-10-03T09:11:13;1.77;;;1.07;;
7813;SDS011;3952;48.364;16.022;2022-10-03T09:14:19;3.13;;;0.73;;
7813;SDS011;3952;48.364;16.022;2022-10-03T09:20:15;6.80;;;1.00;;
7813;SDS011;3952;48.364;16.022;2022-10-03T09:23:13;3.00;;;0.90;;
7813;SDS011;3952;48.364;16.022;2022-10-03T09:29:19;1.70;;;0.80;;
7813;SDS011;3952;48.364;16.022;2022-10-03T09:32:23;1.67;;;0.70;;
7813;SDS011;3952;48.364;16.022;2022-10-03T09:41:30;1.73;;;0.60;;
7813;SDS011;3952;48.364;16.022;2022-10-03T09:47:26;1.63;;;0.60;;
7813;SDS011;3952;48.364;16.022;2022-10-03T09:50:22;1.03;;;0.93;;
7813;SDS011;3952;48.364;16.022;2022-10-03T09:53:30;1.90;;;0.47;;
7813;SDS011;3952;48.364;16.022;2022-10-03T09:56:22;0.80;;;0.50;;
7813;SDS011;3952;48.364;16.022;2022-10-03T10:06:06;1.37;;;0.70;;
7813;SDS011;3952;48.364;16.022;2022-10-03T10:12:09;2.00;;;0.87;;
7813;SDS011;3952;48.364;16.022;2022-10-03T10:18:15;1.57;;;0.60;;
7813;SDS011;3952;48.364;16.022;2022-10-03T10:24:40;4.40;;;0.67;;
7813;SDS011;3952;48.364;16.022;2022-10-03T10:30:50;4.80;;;0.70;;
7813;SDS011;3952;48.364;16.022;2022-10-03T10:37:07;1.93;;;0.73;;
7813;SDS011;3952;48.364;16.022;2022-10-03T10:40:16;2.40;;;0.70;;
7813;SDS011;3952;48.364;16.022;2022-10-03T10:46:23;2.83;;;0.73;;
7813;SDS011;3952;48.364;16.022;2022-10-03T10:49:38;1.07;;;0.60;;
7813;SDS011;3952;48.364;16.022;2022-10-03T10:59:04;1.90;;;0.40;;
7813;SDS011;3952;48.364;16.022;2022-10-03T11:02:13;1.00;;;0.40;;
7813;SDS011;3952;48.364;16.022;2022-10-03T11:27:17;3.43;;;0.93;;
7813;SDS011;3952;48.364;16.022;2022-10-03T11:30:17;1.37;;;0.70;;
7813;SDS011;3952;48.364;16.022;2022-10-03T11:33:02;2.17;;;0.83;;
7813;SDS011;3952;48.364;16.022;2022-10-03T11:39:01;1.23;;;0.57;;
7813;SDS011;3952;48.364;16.022;2022-10-03T11:41:38;0.60;;;0.40;;
7813;SDS011;3952;48.364;16.022;2022-10-03T11:44:17;2.77;;;0.77;;
7813;SDS011;3952;48.364;16.022;2022-10-03T11:46:52;0.50;;;0.50;;
7813;SDS011;3952;48.364;16.022;2022-10-03T11:49:30;1.83;;;0.50;;
7813;SDS011;3952;48.364;16.022;2022-10-03T11:52:25;0.60;;;0.60;;
7813;SDS011;3952;48.364;16.022;2022-10-03T11:55:01;2.50;;;0.70;;
7813;SDS011;3952;48.364;16.022;2022-10-03T11:57:47;8.13;;;0.70;;
7813;SDS011;3952;48.364;16.022;2022-10-03T12:00:27;0.73;;;0.40;;
7813;SDS011;3952;48.364;16.022;2022-10-03T12:03:04;1.23;;;0.43;;
7813;SDS011;3952;48.364;16.022;2022-10-03T12:05:48;1.70;;;0.70;;
7813;SDS011;3952;48.364;16.022;2022-10-03T12:08:39;1.77;;;0.50;;
7813;SDS011;3952;48.364;16.022;2022-10-03T12:11:22;1.53;;;0.60;;
7813;SDS011;3952;48.364;16.022;2022-10-03T12:14:06;0.40;;;0.40;;
7813;SDS011;3952;48.364;16.022;2022-10-03T12:16:53;3.70;;;0.80;;
7813;SDS011;3952;48.364;16.022;2022-10-03T12:19:28;1.10;;;0.50;;
7813;SDS011;3952;48.364;16.022;2022-10-03T12:22:02;2.97;;;0.80;;
7813;SDS011;3952;48.364;16.022;2022-10-03T12:24:39;1.13;;;0.40;;
7813;SDS011;3952;48.364;16.022;2022-10-03T12:27:12;1.23;;;0.90;;
7813;SDS011;3952;48.364;16.022;2022-10-03T12:29:50;1.00;;;0.50;;
7813;SDS011;3952;48.364;16.022;2022-10-03T12:32:27;0.50;;;0.50;;
7813;SDS011;3952;48.364;16.022;2022-10-03T12:35:02;1.17;;;0.97;;
7813;SDS011;3952;48.364;16.022;2022-10-03T12:37:43;1.03;;;0.67;;
7813;SDS011;3952;48.364;16.022;2022-10-03T12:40:28;2.50;;;0.70;;
7813;SDS011;3952;48.364;16.022;2022-10-03T12:43:08;0.30;;;0.30;;
7813;SDS011;3952;48.364;16.022;2022-10-03T12:45:49;1.57;;;0.77;;
7813;SDS011;3952;48.364;16.022;2022-10-03T12:48:35;0.70;;;0.60;;
7813;SDS011;3952;48.364;16.022;2022-10-03T12:51:12;0.73;;;0.60;;
7813;SDS011;3952;48.364;16.022;2022-10-03T12:53:49;0.50;;;0.50;;
7813;SDS011;3952;48.364;16.022;2022-10-03T12:56:26;0.53;;;0.50;;
7813;SDS011;3952;48.364;16.022;2022-10-03T12:59:03;0.50;;;0.50;;
7813;SDS011;3952;48.364;16.022;2022-10-03T13:01:47;0.83;;;0.60;;
7813;SDS011;3952;48.364;16.022;2022-10-03T13:04:28;0.90;;;0.67;;
7813;SDS011;3952;48.364;16.022;2022-10-03T13:07:07;0.60;;;0.40;;
7813;SDS011;3952;48.364;16.022;2022-10-03T13:09:56;0.90;;;0.90;;
7813;SDS011;3952;48.364;16.022;2022-10-03T13:12:36;2.83;;;0.63;;
7813;SDS011;3952;48.364;16.022;2022-10-03T13:18:13;0.77;;;0.70;;
7813;SDS011;3952;48.364;16.022;2022-10-03T13:21:04;1.27;;;0.60;;
7813;SDS011;3952;48.364;16.022;2022-10-03T13:23:39;0.60;;;0.33;;
7813;SDS011;3952;48.364;16.022;2022-10-03T13:26:13;3.13;;;0.50;;
7813;SDS011;3952;48.364;16.022;2022-10-03T13:28:56;0.50;;;0.40;;
7813;SDS011;3952;48.364;16.022;2022-10-03T13:31:48;0.20;;;0.20;;
7813;SDS011;3952;48.364;16.022;2022-10-03T13:34:31;0.60;;;0.60;;
7813;SDS011;3952;48.364;16.022;2022-10-03T13:37:05;0.57;;;0.57;;
7813;SDS011;3952;48.364;16.022;2022-10-03T13:39:40;0.57;;;0.50;;
7813;SDS011;3952;48.364;16.022;2022-10-03T13:42:13;0.63;;;0.60;;
7813;SDS011;3952;48.364;16.022;2022-10-03T13:44:46;0.57;;;0.50;;
7813;SDS011;3952;48.364;16.022;2022-10-03T13:47:26;1.53;;;0.73;;
7813;SDS011;3952;48.364;16.022;2022-10-03T13:50:00;0.70;;;0.67;;
7813;SDS011;3952;48.364;16.022;2022-10-03T13:52:34;1.67;;;0.90;;
7813;SDS011;3952;48.364;16.022;2022-10-03T13:55:08;1.33;;;0.67;;
7813;SDS011;3952;48.364;16.022;2022-10-03T13:58:27;1.10;;;0.70;;
7813;SDS011;3952;48.364;16.022;2022-10-03T14:01:07;0.77;;;0.70;;
7813;SDS011;3952;48.364;16.022;2022-10-03T14:03:52;2.07;;;0.70;;
7813;SDS011;3952;48.364;16.022;2022-10-03T14:06:46;1.07;;;0.90;;
7813;SDS011;3952;48.364;16.022;2022-10-03T14:09:31;0.70;;;0.70;;
7813;SDS011;3952;48.364;16.022;2022-10-03T14:12:14;0.90;;;0.90;;
7813;SDS011;3952;48.364;16.022;2022-10-03T14:14:57;0.97;;;0.90;;
7813;SDS011;3952;48.364;16.022;2022-10-03T14:17:35;0.73;;;0.73;;
7813;SDS011;3952;48.364;16.022;2022-10-03T14:20:18;0.97;;;0.97;;
7813;SDS011;3952;48.364;16.022;2022-10-03T14:22:53;0.97;;;0.90;;
7813;SDS011;3952;48.364;16.022;2022-10-03T14:25:32;1.30;;;1.00;;
7813;SDS011;3952;48.364;16.022;2022-10-03T14:28:06;0.80;;;0.80;;
7813;SDS011;3952;48.364;16.022;2022-10-03T14:30:45;2.40;;;0.87;;
7813;SDS011;3952;48.364;16.022;2022-10-03T14:33:28;1.00;;;0.90;;
7813;SDS011;3952;48.364;16.022;2022-10-03T14:36:07;0.70;;;0.70;;
7813;SDS011;3952;48.364;16.022;2022-10-03T14:38:54;0.70;;;0.70;;
7813;SDS011;3952;48.364;16.022;2022-10-03T14:41:40;2.00;;;1.00;;
7813;SDS011;3952;48.364;16.022;2022-10-03T14:44:13;0.87;;;0.87;;
7813;SDS011;3952;48.364;16.022;2022-10-03T14:46:45;1.33;;;0.97;;
7813;SDS011;3952;48.364;16.022;2022-10-03T14:49:16;1.23;;;0.80;;
7813;SDS011;3952;48.364;16.022;2022-10-03T14:51:50;0.70;;;0.67;;
7813;SDS011;3952;48.364;16.022;2022-10-03T14:54:22;1.37;;;1.20;;
7813;SDS011;3952;48.364;16.022;2022-10-03T14:56:54;1.23;;;0.90;;
7813;SDS011;3952;48.364;16.022;2022-10-03T14:59:24;1.30;;;0.87;;
7813;SDS011;3952;48.364;16.022;2022-10-03T15:01:57;1.20;;;0.80;;
7813;SDS011;3952;48.364;16.022;2022-10-03T15:04:26;1.03;;;0.70;;
7813;SDS011;3952;48.364;16.022;2022-10-03T15:06:56;1.17;;;0.77;;
7813;SDS011;3952;48.364;16.022;2022-10-03T15:09:32;1.73;;;0.93;;
7813;SDS011;3952;48.364;16.022;2022-10-03T15:12:11;2.93;;;1.53;;
7813;SDS011;3952;48.364;16.022;2022-10-03T15:14:42;1.00;;;1.00;;
7813;SDS011;3952;48.364;16.022;2022-10-03T15:17:17;1.03;;;0.97;;
7813;SDS011;3952;48.364;16.022;2022-10-03T15:19:49;2.10;;;0.90;;
7813;SDS011;3952;48.364;16.022;2022-10-03T15:22:22;1.70;;;1.17;;
7813;SDS011;3952;48.364;16.022;2022-10-03T15:24:59;1.43;;;1.30;;
7813;SDS011;3952;48.364;16.022;2022-10-03T15:27:32;1.43;;;1.10;;
7813;SDS011;3952;48.364;16.022;2022-10-03T15:30:03;2.30;;;1.27;;
7813;SDS011;3952;48.364;16.022;2022-10-03T15:32:33;1.40;;;1.03;;
7813;SDS011;3952;48.364;16.022;2022-10-03T15:35:04;1.00;;;0.80;;
7813;SDS011;3952;48.364;16.022;2022-10-03T15:40:04;2.03;;;1.23;;
7813;SDS011;3952;48.364;16.022;2022-10-03T15:42:44;2.97;;;1.27;;
7813;SDS011;3952;48.364;16.022;2022-10-03T15:45:18;2.10;;;1.20;;
7813;SDS011;3952;48.364;16.022;2022-10-03T15:47:53;1.10;;;1.00;;
7813;SDS011;3952;48.364;16.022;2022-10-03T15:50:22;1.00;;;1.00;;
7813;SDS011;3952;48.364;16.022;2022-10-03T15:52:53;1.80;;;1.30;;
7813;SDS011;3952;48.364;16.022;2022-10-03T15:55:24;1.10;;;1.00;;
7813;SDS011;3952;48.364;16.022;2022-10-03T15:58:12;1.07;;;0.97;;
7813;SDS011;3952;48.364;16.022;2022-10-03T16:00:46;0.97;;;0.93;;
7813;SDS011;3952;48.364;16.022;2022-10-03T16:03:22;1.20;;;1.00;;
7813;SDS011;3952;48.364;16.022;2022-10-03T16:05:58;2.33;;;1.03;;
7813;SDS011;3952;48.364;16.022;2022-10-03T16:08:33;0.97;;;0.90;;
7813;SDS011;3952;48.364;16.022;2022-10-03T16:11:08;1.57;;;1.20;;
7813;SDS011;3952;48.364;16.022;2022-10-03T16:13:41;1.03;;;1.03;;
7813;SDS011;3952;48.364;16.022;2022-10-03T16:16:13;1.37;;;1.03;;
7813;SDS011;3952;48.364;16.022;2022-10-03T16:18:52;1.10;;;1.10;;
7813;SDS011;3952;48.364;16.022;2022-10-03T16:21:39;1.00;;;1.00;;
7813;SDS011;3952;48.364;16.022;2022-10-03T16:27:02;1.10;;;1.10;;
7813;SDS011;3952;48.364;16.022;2022-10-03T16:29:38;0.60;;;0.60;;
7813;SDS011;3952;48.364;16.022;2022-10-03T16:32:14;0.90;;;0.90;;
7813;SDS011;3952;48.364;16.022;2022-10-03T16:34:45;0.90;;;0.90;;
7813;SDS011;3952;48.364;16.022;2022-10-03T16:37:15;1.20;;;1.20;;
7813;SDS011;3952;48.364;16.022;2022-10-03T16:39:47;0.90;;;0.90;;
7813;SDS011;3952;48.364;16.022;2022-10-03T16:42:22;1.30;;;1.30;;
7813;SDS011;3952;48.364;16.022;2022-10-03T16:44:54;1.50;;;1.00;;
7813;SDS011;3952;48.364;16.022;2022-10-03T16:47:35;1.33;;;1.10;;
7813;SDS011;3952;48.364;16.022;2022-10-03T16:50:04;1.57;;;1.10;;
7813;SDS011;3952;48.364;16.022;2022-10-03T16:52:52;1.70;;;1.07;;
7813;SDS011;3952;48.364;16.022;2022-10-03T16:55:25;3.07;;;1.10;;
7813;SDS011;3952;48.364;16.022;2022-10-03T16:57:56;1.10;;;1.10;;
7813;SDS011;3952;48.364;16.022;2022-10-03T17:00:32;1.83;;;1.27;;
7813;SDS011;3952;48.364;16.022;2022-10-03T17:03:04;1.30;;;1.20;;
7813;SDS011;3952;48.364;16.022;2022-10-03T17:05:44;1.30;;;1.20;;
7813;SDS011;3952;48.364;16.022;2022-10-03T17:08:13;1.00;;;1.00;;
7813;SDS011;3952;48.364;16.022;2022-10-03T17:10:43;1.53;;;1.40;;
7813;SDS011;3952;48.364;16.022;2022-10-03T17:13:19;0.90;;;0.90;;
7813;SDS011;3952;48.364;16.022;2022-10-03T17:15:50;0.90;;;0.90;;
7813;SDS011;3952;48.364;16.022;2022-10-03T17:18:22;1.13;;;1.03;;
7813;SDS011;3952;48.364;16.022;2022-10-03T17:20:54;1.43;;;1.33;;
7813;SDS011;3952;48.364;16.022;2022-10-03T17:23:27;1.20;;;1.10;;
7813;SDS011;3952;48.364;16.022;2022-10-03T17:26:02;1.20;;;1.10;;
7813;SDS011;3952;48.364;16.022;2022-10-03T17:28:36;1.60;;;1.13;;
7813;SDS011;3952;48.364;16.022;2022-10-03T17:31:16;1.30;;;1.30;;
7813;SDS011;3952;48.364;16.022;2022-10-03T17:33:53;0.93;;;0.90;;
7813;SDS011;3952;48.364;16.022;2022-10-03T17:36:46;1.50;;;1.40;;
7813;SDS011;3952;48.364;16.022;2022-10-03T17:42:25;1.47;;;1.00;;
7813;SDS011;3952;48.364;16.022;2022-10-03T17:45:18;1.47;;;1.37;;
7813;SDS011;3952;48.364;16.022;2022-10-03T17:48:09;1.63;;;1.40;;
7813;SDS011;3952;48.364;16.022;2022-10-03T17:50:42;2.07;;;1.83;;
7813;SDS011;3952;48.364;16.022;2022-10-03T17:53:23;1.50;;;1.40;;
7813;SDS011;3952;48.364;16.022;2022-10-03T17:55:54;1.70;;;1.60;;
7813;SDS011;3952;48.364;16.022;2022-10-03T17:58:23;1.53;;;1.20;;
7813;SDS011;3952;48.364;16.022;2022-10-03T18:00:55;1.20;;;1.20;;
7813;SDS011;3952;48.364;16.022;2022-10-03T18:03:31;2.30;;;1.10;;
7813;SDS011;3952;48.364;16.022;2022-10-03T18:09:19;0.90;;;0.90;;
7813;SDS011;3952;48.364;16.022;2022-10-03T18:11:51;1.13;;;1.13;;
7813;SDS011;3952;48.364;16.022;2022-10-03T18:14:29;1.53;;;1.30;;
7813;SDS011;3952;48.364;16.022;2022-10-03T18:17:08;4.20;;;1.00;;
7813;SDS011;3952;48.364;16.022;2022-10-03T18:19:47;1.30;;;1.10;;
7813;SDS011;3952;48.364;16.022;2022-10-03T18:22:24;0.70;;;0.70;;
7813;SDS011;3952;48.364;16.022;2022-10-03T18:24:56;1.20;;;1.10;;
7813;SDS011;3952;48.364;16.022;2022-10-03T18:28:06;0.80;;;0.80;;
7813;SDS011;3952;48.364;16.022;2022-10-03T18:30:42;0.80;;;0.80;;
7813;SDS011;3952;48.364;16.022;2022-10-03T18:33:12;1.10;;;1.00;;
7813;SDS011;3952;48.364;16.022;2022-10-03T18:35:44;1.00;;;1.00;;
7813;SDS011;3952;48.364;16.022;2022-10-03T18:38:16;0.73;;;0.73;;
7813;SDS011;3952;48.364;16.022;2022-10-03T18:40:50;1.03;;;0.80;;
7813;SDS011;3952;48.364;16.022;2022-10-03T18:43:24;1.33;;;1.10;;
7813;SDS011;3952;48.364;16.022;2022-10-03T18:45:59;0.90;;;0.90;;
7813;SDS011;3952;48.364;16.022;2022-10-03T18:48:35;1.53;;;1.30;;
7813;SDS011;3952;48.364;16.022;2022-10-03T18:51:11;0.93;;;0.93;;
7813;SDS011;3952;48.364;16.022;2022-10-03T18:53:44;0.97;;;0.97;;
7813;SDS011;3952;48.364;16.022;2022-10-03T18:56:17;1.40;;;1.10;;
7813;SDS011;3952;48.364;16.022;2022-10-03T18:58:56;2.00;;;1.10;;
7813;SDS011;3952;48.364;16.022;2022-10-03T19:01:36;1.20;;;0.97;;
7813;SDS011;3952;48.364;16.022;2022-10-03T19:04:11;1.30;;;1.13;;
7813;SDS011;3952;48.364;16.022;2022-10-03T19:06:44;1.93;;;1.07;;
7813;SDS011;3952;48.364;16.022;2022-10-03T19:09:16;0.73;;;0.73;;
7813;SDS011;3952;48.364;16.022;2022-10-03T19:11:49;0.97;;;0.97;;
7813;SDS011;3952;48.364;16.022;2022-10-03T19:14:24;1.53;;;1.37;;
7813;SDS011;3952;48.364;16.022;2022-10-03T19:17:08;2.00;;;1.33;;
7813;SDS011;3952;48.364;16.022;2022-10-03T19:19:51;2.90;;;1.37;;
7813;SDS011;3952;48.364;16.022;2022-10-03T19:22:23;1.73;;;1.20;;
7813;SDS011;3952;48.364;16.022;2022-10-03T19:24:54;1.50;;;1.40;;
7813;SDS011;3952;48.364;16.022;2022-10-03T19:27:38;1.17;;;1.07;;
7813;SDS011;3952;48.364;16.022;2022-10-03T19:30:08;3.13;;;1.33;;
7813;SDS011;3952;48.364;16.022;2022-10-03T19:32:44;1.50;;;1.30;;
7813;SDS011;3952;48.364;16.022;2022-10-03T19:35:17;1.07;;;1.03;;
7813;SDS011;3952;48.364;16.022;2022-10-03T19:37:48;1.40;;;1.30;;
7813;SDS011;3952;48.364;16.022;2022-10-03T19:43:24;1.87;;;1.20;;
7813;SDS011;3952;48.364;16.022;2022-10-03T19:54:47;1.40;;;1.30;;
7813;SDS011;3952;48.364;16.022;2022-10-03T19:57:18;2.70;;;1.27;;
7813;SDS011;3952;48.364;16.022;2022-10-03T19:59:50;1.43;;;1.13;;
7813;SDS011;3952;48.364;16.022;2022-10-03T20:02:22;1.60;;;1.50;;
7813;SDS011;3952;48.364;16.022;2022-10-03T20:04:51;1.90;;;1.40;;
7813;SDS011;3952;48.364;16.022;2022-10-03T20:07:25;1.57;;;1.47;;
7813;SDS011;3952;48.364;16.022;2022-10-03T20:10:03;1.33;;;1.17;;
7813;SDS011;3952;48.364;16.022;2022-10-03T20:12:51;1.80;;;1.30;;
7813;SDS011;3952;48.364;16.022;2022-10-03T20:15:20;2.13;;;1.20;;
7813;SDS011;3952;48.364;16.022;2022-10-03T20:17:49;1.20;;;1.20;;
7813;SDS011;3952;48.364;16.022;2022-10-03T20:20:22;1.50;;;1.40;;
7813;SDS011;3952;48.364;16.022;2022-10-03T20:22:52;1.27;;;1.17;;
7813;SDS011;3952;48.364;16.022;2022-10-03T20:25:24;1.70;;;1.20;;
7813;SDS011;3952;48.364;16.022;2022-10-03T20:27:57;3.23;;;1.30;;
7813;SDS011;3952;48.364;16.022;2022-10-03T20:30:30;1.20;;;1.20;;